sensor_id;sensor_type;location;lat;lon;timestamp;temperature;humidity
336;DHT22;156;48.738;9.228;2023-04-25T00:00:47;8.00;1.00
336;DHT22;156;48.738;9.228;2023-04-25T00:03:14;8.00;1.00
336;DHT22;156;48.738;9.228;2023-04-25T00:05:42;8.00;1.00
336;DHT22;156;48.738;9.228;2023-04-25T00:08:10;8.00;1.00
336;DHT22;156;48.738;9.228;2023-04-25T00:10:37;7.90;1.00
336;DHT22;156;48.738;9.228;2023-04-25T00:13:04;8.00;1.00
336;DHT22;156;48.738;9.228;2023-04-25T00:15:31;8.10;1.00
336;DHT22;156;48.738;9.228;2023-04-25T00:17:58;8.10;1.00
336;DHT22;156;48.738;9.228;2023-04-25T00:20:25;8.10;1.00
336;DHT22;156;48.738;9.228;2023-04-25T00:22:53;8.10;1.00
336;DHT22;156;48.738;9.228;2023-04-25T00:25:21;8.10;1.00
336;DHT22;156;48.738;9.228;2023-04-25T00:27:48;8.20;1.00
336;DHT22;156;48.738;9.228;2023-04-25T00:30:15;8.20;1.00
336;DHT22;156;48.738;9.228;2023-04-25T00:32:42;8.30;1.00
336;DHT22;156;48.738;9.228;2023-04-25T00:35:09;8.20;1.00
336;DHT22;156;48.738;9.228;2023-04-25T00:37:36;8.20;1.00
336;DHT22;156;48.738;9.228;2023-04-25T00:40:07;8.00;1.00
336;DHT22;156;48.738;9.228;2023-04-25T00:42:35;7.90;1.00
336;DHT22;156;48.738;9.228;2023-04-25T00:45:05;8.00;1.00
336;DHT22;156;48.738;9.228;2023-04-25T00:47:33;8.00;1.00
336;DHT22;156;48.738;9.228;2023-04-25T00:50:00;8.00;1.00
336;DHT22;156;48.738;9.228;2023-04-25T00:52:27;8.00;1.00
336;DHT22;156;48.738;9.228;2023-04-25T00:54:54;8.10;1.00
336;DHT22;156;48.738;9.228;2023-04-25T00:57:22;8.10;1.00
336;DHT22;156;48.738;9.228;2023-04-25T00:59:51;8.10;1.00
336;DHT22;156;48.738;9.228;2023-04-25T01:02:18;8.10;1.00
336;DHT22;156;48.738;9.228;2023-04-25T01:04:46;8.10;1.00
336;DHT22;156;48.738;9.228;2023-04-25T01:07:14;8.00;1.00
336;DHT22;156;48.738;9.228;2023-04-25T01:09:41;7.90;1.00
336;DHT22;156;48.738;9.228;2023-04-25T01:12:08;7.90;1.00
336;DHT22;156;48.738;9.228;2023-04-25T01:14:36;8.00;1.00
336;DHT22;156;48.738;9.228;2023-04-25T01:17:03;8.00;1.00
336;DHT22;156;48.738;9.228;2023-04-25T01:19:31;8.10;1.00
336;DHT22;156;48.738;9.228;2023-04-25T01:21:59;8.10;1.00
336;DHT22;156;48.738;9.228;2023-04-25T01:24:26;8.00;1.00
336;DHT22;156;48.738;9.228;2023-04-25T01:26:54;8.10;1.00
336;DHT22;156;48.738;9.228;2023-04-25T01:29:22;8.00;1.00
336;DHT22;156;48.738;9.228;2023-04-25T01:31:51;8.00;1.00
336;DHT22;156;48.738;9.228;2023-04-25T01:34:18;8.00;1.00
336;DHT22;156;48.738;9.228;2023-04-25T01:36:46;8.00;1.00
336;DHT22;156;48.738;9.228;2023-04-25T01:39:15;7.90;1.00
336;DHT22;156;48.738;9.228;2023-04-25T01:41:42;7.90;1.00
336;DHT22;156;48.738;9.228;2023-04-25T01:44:09;7.90;1.00
336;DHT22;156;48.738;9.228;2023-04-25T01:46:37;7.90;1.00
336;DHT22;156;48.738;9.228;2023-04-25T01:49:04;7.60;4.90
336;DHT22;156;48.738;9.228;2023-04-25T01:51:31;7.60;10.50
336;DHT22;156;48.738;9.228;2023-04-25T01:53:58;7.60;13.60
336;DHT22;156;48.738;9.228;2023-04-25T01:56:30;7.50;13.60
336;DHT22;156;48.738;9.228;2023-04-25T01:58:57;7.30;16.90
336;DHT22;156;48.738;9.228;2023-04-25T02:01:24;7.40;17.40
336;DHT22;156;48.738;9.228;2023-04-25T02:03:51;7.40;16.20
336;DHT22;156;48.738;9.228;2023-04-25T02:06:18;7.40;12.80
336;DHT22;156;48.738;9.228;2023-04-25T02:08:45;7.40;12.90
336;DHT22;156;48.738;9.228;2023-04-25T02:11:12;7.40;12.50
336;DHT22;156;48.738;9.228;2023-04-25T02:13:40;7.40;8.50
336;DHT22;156;48.738;9.228;2023-04-25T02:16:07;7.40;8.80
336;DHT22;156;48.738;9.228;2023-04-25T02:18:34;7.40;2.50
336;DHT22;156;48.738;9.228;2023-04-25T02:21:02;7.30;1.00
336;DHT22;156;48.738;9.228;2023-04-25T02:23:29;7.20;1.00
336;DHT22;156;48.738;9.228;2023-04-25T02:25:57;7.20;1.00
336;DHT22;156;48.738;9.228;2023-04-25T02:28:24;7.20;1.00
336;DHT22;156;48.738;9.228;2023-04-25T02:30:53;7.10;1.00
336;DHT22;156;48.738;9.228;2023-04-25T02:33:20;7.10;1.00
336;DHT22;156;48.738;9.228;2023-04-25T02:35:47;7.10;1.00
336;DHT22;156;48.738;9.228;2023-04-25T02:38:14;7.10;1.00
336;DHT22;156;48.738;9.228;2023-04-25T02:40:41;7.20;1.00
336;DHT22;156;48.738;9.228;2023-04-25T02:43:08;7.20;1.00
336;DHT22;156;48.738;9.228;2023-04-25T02:45:35;7.20;1.00
336;DHT22;156;48.738;9.228;2023-04-25T02:48:05;7.10;1.00
336;DHT22;156;48.738;9.228;2023-04-25T02:50:32;7.10;1.00
336;DHT22;156;48.738;9.228;2023-04-25T02:52:58;7.10;1.00
336;DHT22;156;48.738;9.228;2023-04-25T02:55:25;7.10;1.00
336;DHT22;156;48.738;9.228;2023-04-25T02:57:52;7.10;1.00
336;DHT22;156;48.738;9.228;2023-04-25T03:00:21;7.00;1.00
336;DHT22;156;48.738;9.228;2023-04-25T03:02:47;7.10;1.00
336;DHT22;156;48.738;9.228;2023-04-25T03:05:16;7.00;1.00
336;DHT22;156;48.738;9.228;2023-04-25T03:07:43;7.00;1.00
336;DHT22;156;48.738;9.228;2023-04-25T03:10:11;7.00;1.00
336;DHT22;156;48.738;9.228;2023-04-25T03:12:38;6.90;1.00
336;DHT22;156;48.738;9.228;2023-04-25T03:15:06;7.00;1.00
336;DHT22;156;48.738;9.228;2023-04-25T03:17:35;7.00;1.00
336;DHT22;156;48.738;9.228;2023-04-25T03:20:02;7.00;1.00
336;DHT22;156;48.738;9.228;2023-04-25T03:22:32;7.00;1.00
336;DHT22;156;48.738;9.228;2023-04-25T03:24:59;7.00;1.00
336;DHT22;156;48.738;9.228;2023-04-25T03:27:26;7.00;1.00
336;DHT22;156;48.738;9.228;2023-04-25T03:29:53;7.00;1.00
336;DHT22;156;48.738;9.228;2023-04-25T03:32:20;7.20;1.00
336;DHT22;156;48.738;9.228;2023-04-25T03:34:46;7.30;1.00
336;DHT22;156;48.738;9.228;2023-04-25T03:37:13;7.40;1.00
336;DHT22;156;48.738;9.228;2023-04-25T03:39:42;7.30;1.00
336;DHT22;156;48.738;9.228;2023-04-25T03:42:09;7.30;1.00
336;DHT22;156;48.738;9.228;2023-04-25T03:44:36;7.10;1.00
336;DHT22;156;48.738;9.228;2023-04-25T03:47:03;7.10;1.00
336;DHT22;156;48.738;9.228;2023-04-25T03:49:30;7.10;1.00
336;DHT22;156;48.738;9.228;2023-04-25T03:51:57;7.10;1.00
336;DHT22;156;48.738;9.228;2023-04-25T03:54:23;7.00;1.00
336;DHT22;156;48.738;9.228;2023-04-25T03:56:52;6.90;1.00
336;DHT22;156;48.738;9.228;2023-04-25T03:59:19;6.90;1.00
336;DHT22;156;48.738;9.228;2023-04-25T04:01:45;6.90;1.00
336;DHT22;156;48.738;9.228;2023-04-25T04:04:12;6.80;1.00
336;DHT22;156;48.738;9.228;2023-04-25T04:06:39;6.90;1.00
336;DHT22;156;48.738;9.228;2023-04-25T04:09:07;7.00;1.00
336;DHT22;156;48.738;9.228;2023-04-25T04:11:36;7.00;1.00
336;DHT22;156;48.738;9.228;2023-04-25T04:14:05;7.10;1.00
336;DHT22;156;48.738;9.228;2023-04-25T04:16:32;7.10;1.00
336;DHT22;156;48.738;9.228;2023-04-25T04:18:59;7.00;1.00
336;DHT22;156;48.738;9.228;2023-04-25T04:21:26;6.90;1.00
336;DHT22;156;48.738;9.228;2023-04-25T04:23:53;6.90;1.00
336;DHT22;156;48.738;9.228;2023-04-25T04:26:21;6.90;1.00
336;DHT22;156;48.738;9.228;2023-04-25T04:28:49;6.90;1.00
336;DHT22;156;48.738;9.228;2023-04-25T04:31:18;7.00;1.00
336;DHT22;156;48.738;9.228;2023-04-25T04:33:45;7.10;1.00
336;DHT22;156;48.738;9.228;2023-04-25T04:36:12;7.10;1.00
336;DHT22;156;48.738;9.228;2023-04-25T04:38:39;7.10;1.00
336;DHT22;156;48.738;9.228;2023-04-25T04:41:08;7.20;1.00
336;DHT22;156;48.738;9.228;2023-04-25T04:43:35;7.30;1.00
336;DHT22;156;48.738;9.228;2023-04-25T04:46:02;7.20;1.00
336;DHT22;156;48.738;9.228;2023-04-25T04:48:31;7.30;1.00
336;DHT22;156;48.738;9.228;2023-04-25T04:51:01;7.20;1.00
336;DHT22;156;48.738;9.228;2023-04-25T04:53:28;7.30;1.00
336;DHT22;156;48.738;9.228;2023-04-25T04:55:55;7.30;1.00
336;DHT22;156;48.738;9.228;2023-04-25T04:58:21;7.30;1.00
336;DHT22;156;48.738;9.228;2023-04-25T05:00:48;7.40;1.00
336;DHT22;156;48.738;9.228;2023-04-25T05:03:15;7.20;1.00
336;DHT22;156;48.738;9.228;2023-04-25T05:05:44;7.30;1.00
336;DHT22;156;48.738;9.228;2023-04-25T05:08:11;7.40;1.00
336;DHT22;156;48.738;9.228;2023-04-25T05:10:38;7.40;1.00
336;DHT22;156;48.738;9.228;2023-04-25T05:13:05;7.40;1.00
336;DHT22;156;48.738;9.228;2023-04-25T05:15:32;7.40;1.00
336;DHT22;156;48.738;9.228;2023-04-25T05:17:59;7.30;1.00
336;DHT22;156;48.738;9.228;2023-04-25T05:20:27;7.40;1.00
336;DHT22;156;48.738;9.228;2023-04-25T05:22:55;7.50;1.00
336;DHT22;156;48.738;9.228;2023-04-25T05:25:22;7.40;1.00
336;DHT22;156;48.738;9.228;2023-04-25T05:27:49;7.30;1.00
336;DHT22;156;48.738;9.228;2023-04-25T05:30:16;7.30;1.00
336;DHT22;156;48.738;9.228;2023-04-25T05:32:43;7.40;1.00
336;DHT22;156;48.738;9.228;2023-04-25T05:35:13;7.30;1.00
336;DHT22;156;48.738;9.228;2023-04-25T05:37:39;7.30;1.00
336;DHT22;156;48.738;9.228;2023-04-25T05:40:09;7.30;1.00
336;DHT22;156;48.738;9.228;2023-04-25T05:42:36;7.30;1.00
336;DHT22;156;48.738;9.228;2023-04-25T05:45:03;7.40;1.00
336;DHT22;156;48.738;9.228;2023-04-25T05:47:30;7.40;1.00
336;DHT22;156;48.738;9.228;2023-04-25T05:49:57;7.50;1.00
336;DHT22;156;48.738;9.228;2023-04-25T05:52:24;7.60;1.00
336;DHT22;156;48.738;9.228;2023-04-25T05:54:51;7.70;1.00
336;DHT22;156;48.738;9.228;2023-04-25T05:57:23;7.70;1.00
336;DHT22;156;48.738;9.228;2023-04-25T05:59:51;7.80;1.00
336;DHT22;156;48.738;9.228;2023-04-25T06:02:18;8.00;1.00
336;DHT22;156;48.738;9.228;2023-04-25T06:04:45;8.10;1.00
336;DHT22;156;48.738;9.228;2023-04-25T06:07:12;8.20;1.00
336;DHT22;156;48.738;9.228;2023-04-25T06:09:39;8.10;1.00
336;DHT22;156;48.738;9.228;2023-04-25T06:12:06;7.70;1.00
336;DHT22;156;48.738;9.228;2023-04-25T06:14:35;7.50;1.00
336;DHT22;156;48.738;9.228;2023-04-25T06:17:02;7.50;1.00
336;DHT22;156;48.738;9.228;2023-04-25T06:19:32;7.40;1.00
336;DHT22;156;48.738;9.228;2023-04-25T06:21:59;7.50;1.00
336;DHT22;156;48.738;9.228;2023-04-25T06:24:26;7.50;1.00
336;DHT22;156;48.738;9.228;2023-04-25T06:26:53;7.60;1.00
336;DHT22;156;48.738;9.228;2023-04-25T06:29:20;7.70;1.00
336;DHT22;156;48.738;9.228;2023-04-25T06:31:48;7.80;1.00
336;DHT22;156;48.738;9.228;2023-04-25T06:34:15;7.80;1.00
336;DHT22;156;48.738;9.228;2023-04-25T06:36:43;8.00;1.00
336;DHT22;156;48.738;9.228;2023-04-25T06:39:10;8.10;1.00
336;DHT22;156;48.738;9.228;2023-04-25T06:41:37;8.00;1.00
336;DHT22;156;48.738;9.228;2023-04-25T06:44:04;7.80;1.00
336;DHT22;156;48.738;9.228;2023-04-25T06:46:31;7.80;1.00
336;DHT22;156;48.738;9.228;2023-04-25T06:48:59;7.80;1.00
336;DHT22;156;48.738;9.228;2023-04-25T06:51:26;7.70;1.00
336;DHT22;156;48.738;9.228;2023-04-25T06:53:55;7.70;1.00
336;DHT22;156;48.738;9.228;2023-04-25T06:56:22;7.60;1.00
336;DHT22;156;48.738;9.228;2023-04-25T06:58:49;7.60;1.00
336;DHT22;156;48.738;9.228;2023-04-25T07:01:16;7.60;1.00
336;DHT22;156;48.738;9.228;2023-04-25T07:03:43;7.50;1.00
336;DHT22;156;48.738;9.228;2023-04-25T07:06:12;7.40;1.00
336;DHT22;156;48.738;9.228;2023-04-25T07:08:38;7.40;1.00
336;DHT22;156;48.738;9.228;2023-04-25T07:11:05;7.30;1.00
336;DHT22;156;48.738;9.228;2023-04-25T07:13:32;7.30;1.00
336;DHT22;156;48.738;9.228;2023-04-25T07:15:59;7.20;2.20
336;DHT22;156;48.738;9.228;2023-04-25T07:18:26;7.20;3.60
336;DHT22;156;48.738;9.228;2023-04-25T07:20:54;7.20;8.10
336;DHT22;156;48.738;9.228;2023-04-25T07:23:22;7.20;5.70
336;DHT22;156;48.738;9.228;2023-04-25T07:25:49;7.20;8.60
336;DHT22;156;48.738;9.228;2023-04-25T07:28:16;7.10;10.10
336;DHT22;156;48.738;9.228;2023-04-25T07:30:43;7.00;12.60
336;DHT22;156;48.738;9.228;2023-04-25T07:33:10;7.10;24.10
336;DHT22;156;48.738;9.228;2023-04-25T07:35:37;7.00;27.30
336;DHT22;156;48.738;9.228;2023-04-25T07:38:04;7.00;33.20
336;DHT22;156;48.738;9.228;2023-04-25T07:40:33;7.10;52.60
336;DHT22;156;48.738;9.228;2023-04-25T07:43:00;7.20;52.80
336;DHT22;156;48.738;9.228;2023-04-25T07:45:28;7.20;53.40
336;DHT22;156;48.738;9.228;2023-04-25T07:47:56;7.10;57.70
336;DHT22;156;48.738;9.228;2023-04-25T07:50:23;7.00;60.80
336;DHT22;156;48.738;9.228;2023-04-25T07:52:50;7.00;63.80
336;DHT22;156;48.738;9.228;2023-04-25T07:55:17;6.90;68.80
336;DHT22;156;48.738;9.228;2023-04-25T07:57:46;6.90;72.90
336;DHT22;156;48.738;9.228;2023-04-25T08:00:14;6.80;73.70
336;DHT22;156;48.738;9.228;2023-04-25T08:02:41;6.80;77.90
336;DHT22;156;48.738;9.228;2023-04-25T08:05:08;6.80;81.10
336;DHT22;156;48.738;9.228;2023-04-25T08:07:37;6.70;85.00
336;DHT22;156;48.738;9.228;2023-04-25T08:10:05;6.80;91.40
336;DHT22;156;48.738;9.228;2023-04-25T08:12:33;6.80;93.00
336;DHT22;156;48.738;9.228;2023-04-25T08:15:01;6.90;95.20
336;DHT22;156;48.738;9.228;2023-04-25T08:17:28;6.90;93.00
336;DHT22;156;48.738;9.228;2023-04-25T08:19:55;6.90;94.90
336;DHT22;156;48.738;9.228;2023-04-25T08:22:24;6.90;95.30
336;DHT22;156;48.738;9.228;2023-04-25T08:24:51;7.00;94.40
336;DHT22;156;48.738;9.228;2023-04-25T08:27:18;7.00;96.70
336;DHT22;156;48.738;9.228;2023-04-25T08:29:46;7.20;94.50
336;DHT22;156;48.738;9.228;2023-04-25T08:32:14;7.20;94.60
336;DHT22;156;48.738;9.228;2023-04-25T08:34:41;7.30;93.10
336;DHT22;156;48.738;9.228;2023-04-25T08:37:09;7.20;94.20
336;DHT22;156;48.738;9.228;2023-04-25T08:39:36;7.30;87.20
336;DHT22;156;48.738;9.228;2023-04-25T08:42:06;7.30;91.20
336;DHT22;156;48.738;9.228;2023-04-25T08:44:34;7.30;88.30
336;DHT22;156;48.738;9.228;2023-04-25T08:47:02;7.20;85.40
336;DHT22;156;48.738;9.228;2023-04-25T08:49:32;7.20;86.60
336;DHT22;156;48.738;9.228;2023-04-25T08:52:00;7.20;82.80
336;DHT22;156;48.738;9.228;2023-04-25T08:54:28;7.30;88.50
336;DHT22;156;48.738;9.228;2023-04-25T08:56:57;7.30;86.00
336;DHT22;156;48.738;9.228;2023-04-25T08:59:24;7.40;78.50
336;DHT22;156;48.738;9.228;2023-04-25T09:01:52;7.30;68.10
336;DHT22;156;48.738;9.228;2023-04-25T09:04:19;7.30;73.70
336;DHT22;156;48.738;9.228;2023-04-25T09:06:48;7.30;67.10
336;DHT22;156;48.738;9.228;2023-04-25T09:09:15;7.40;70.60
336;DHT22;156;48.738;9.228;2023-04-25T09:11:42;7.40;71.80
336;DHT22;156;48.738;9.228;2023-04-25T09:14:13;7.50;73.50
336;DHT22;156;48.738;9.228;2023-04-25T09:17:03;7.50;74.00
336;DHT22;156;48.738;9.228;2023-04-25T09:19:32;7.50;81.10
336;DHT22;156;48.738;9.228;2023-04-25T09:22:03;7.40;77.90
336;DHT22;156;48.738;9.228;2023-04-25T09:24:32;7.40;82.00
336;DHT22;156;48.738;9.228;2023-04-25T09:26:59;7.20;90.10
336;DHT22;156;48.738;9.228;2023-04-25T09:29:30;7.20;93.70
336;DHT22;156;48.738;9.228;2023-04-25T09:32:20;7.10;96.60
336;DHT22;156;48.738;9.228;2023-04-25T09:34:49;7.00;96.40
336;DHT22;156;48.738;9.228;2023-04-25T09:37:22;7.00;99.60
336;DHT22;156;48.738;9.228;2023-04-25T09:39:50;7.00;99.60
336;DHT22;156;48.738;9.228;2023-04-25T09:42:18;6.90;98.90
336;DHT22;156;48.738;9.228;2023-04-25T09:44:51;6.80;94.10
336;DHT22;156;48.738;9.228;2023-04-25T09:47:19;6.70;99.50
336;DHT22;156;48.738;9.228;2023-04-25T09:49:49;6.90;99.90
336;DHT22;156;48.738;9.228;2023-04-25T09:52:17;7.00;99.90
336;DHT22;156;48.738;9.228;2023-04-25T09:54:46;6.80;93.80
336;DHT22;156;48.738;9.228;2023-04-25T09:57:14;6.60;70.50
336;DHT22;156;48.738;9.228;2023-04-25T09:59:45;6.50;82.10
336;DHT22;156;48.738;9.228;2023-04-25T10:02:13;6.40;83.20
336;DHT22;156;48.738;9.228;2023-04-25T10:04:41;6.30;73.70
336;DHT22;156;48.738;9.228;2023-04-25T10:07:09;6.30;76.60
336;DHT22;156;48.738;9.228;2023-04-25T10:09:38;6.40;89.90
336;DHT22;156;48.738;9.228;2023-04-25T10:12:08;6.40;80.70
336;DHT22;156;48.738;9.228;2023-04-25T10:14:35;6.40;86.00
336;DHT22;156;48.738;9.228;2023-04-25T10:17:02;6.40;89.30
336;DHT22;156;48.738;9.228;2023-04-25T10:19:32;6.30;94.20
336;DHT22;156;48.738;9.228;2023-04-25T10:22:07;6.20;86.50
336;DHT22;156;48.738;9.228;2023-04-25T10:24:35;6.20;90.40
336;DHT22;156;48.738;9.228;2023-04-25T10:27:02;6.00;81.50
336;DHT22;156;48.738;9.228;2023-04-25T10:29:32;6.00;82.30
336;DHT22;156;48.738;9.228;2023-04-25T10:32:02;6.00;85.00
336;DHT22;156;48.738;9.228;2023-04-25T10:34:39;6.10;88.10
336;DHT22;156;48.738;9.228;2023-04-25T10:37:09;5.90;66.30
336;DHT22;156;48.738;9.228;2023-04-25T10:39:38;6.00;76.90
336;DHT22;156;48.738;9.228;2023-04-25T10:42:05;6.00;85.40
336;DHT22;156;48.738;9.228;2023-04-25T10:44:34;6.00;89.80
336;DHT22;156;48.738;9.228;2023-04-25T10:47:03;6.10;93.50
336;DHT22;156;48.738;9.228;2023-04-25T10:49:36;6.20;90.30
336;DHT22;156;48.738;9.228;2023-04-25T10:52:14;6.10;76.10
336;DHT22;156;48.738;9.228;2023-04-25T10:54:42;6.10;92.50
336;DHT22;156;48.738;9.228;2023-04-25T10:57:26;6.30;94.70
336;DHT22;156;48.738;9.228;2023-04-25T10:59:57;6.30;92.90
336;DHT22;156;48.738;9.228;2023-04-25T11:02:26;6.20;91.60
336;DHT22;156;48.738;9.228;2023-04-25T11:04:53;6.10;98.60
336;DHT22;156;48.738;9.228;2023-04-25T11:07:26;6.20;99.90
336;DHT22;156;48.738;9.228;2023-04-25T11:10:02;6.10;99.90
336;DHT22;156;48.738;9.228;2023-04-25T11:12:30;6.00;99.90
336;DHT22;156;48.738;9.228;2023-04-25T11:15:02;5.80;99.90
336;DHT22;156;48.738;9.228;2023-04-25T11:17:29;5.70;99.90
336;DHT22;156;48.738;9.228;2023-04-25T11:19:57;5.70;99.90
336;DHT22;156;48.738;9.228;2023-04-25T11:22:24;5.60;99.90
336;DHT22;156;48.738;9.228;2023-04-25T11:24:50;5.60;99.90
336;DHT22;156;48.738;9.228;2023-04-25T11:27:17;5.60;99.90
336;DHT22;156;48.738;9.228;2023-04-25T11:29:45;5.50;99.90
336;DHT22;156;48.738;9.228;2023-04-25T11:32:15;5.60;99.90
336;DHT22;156;48.738;9.228;2023-04-25T11:34:44;5.70;99.90
336;DHT22;156;48.738;9.228;2023-04-25T11:37:12;5.80;99.90
336;DHT22;156;48.738;9.228;2023-04-25T11:39:43;5.90;99.90
336;DHT22;156;48.738;9.228;2023-04-25T11:42:11;5.80;97.90
336;DHT22;156;48.738;9.228;2023-04-25T11:44:39;5.80;90.70
336;DHT22;156;48.738;9.228;2023-04-25T11:47:06;6.00;97.40
336;DHT22;156;48.738;9.228;2023-04-25T11:49:35;6.30;99.90
336;DHT22;156;48.738;9.228;2023-04-25T11:52:06;6.50;98.60
336;DHT22;156;48.738;9.228;2023-04-25T11:54:35;6.60;92.40
336;DHT22;156;48.738;9.228;2023-04-25T11:57:03;6.60;86.30
336;DHT22;156;48.738;9.228;2023-04-25T11:59:30;6.60;63.60
336;DHT22;156;48.738;9.228;2023-04-25T12:01:57;6.60;46.80
336;DHT22;156;48.738;9.228;2023-04-25T12:04:25;6.50;41.80
336;DHT22;156;48.738;9.228;2023-04-25T12:06:55;6.50;46.80
336;DHT22;156;48.738;9.228;2023-04-25T12:09:30;6.50;36.60
336;DHT22;156;48.738;9.228;2023-04-25T12:11:58;6.80;44.90
336;DHT22;156;48.738;9.228;2023-04-25T12:14:29;6.70;28.60
336;DHT22;156;48.738;9.228;2023-04-25T12:16:58;6.60;20.60
336;DHT22;156;48.738;9.228;2023-04-25T12:19:25;6.60;23.10
336;DHT22;156;48.738;9.228;2023-04-25T12:21:54;6.70;32.80
336;DHT22;156;48.738;9.228;2023-04-25T12:24:22;6.60;22.20
336;DHT22;156;48.738;9.228;2023-04-25T12:26:52;6.60;17.30
336;DHT22;156;48.738;9.228;2023-04-25T12:29:21;6.80;23.10
336;DHT22;156;48.738;9.228;2023-04-25T12:31:50;6.90;23.80
336;DHT22;156;48.738;9.228;2023-04-25T12:34:17;6.90;20.90
336;DHT22;156;48.738;9.228;2023-04-25T12:36:44;6.70;24.40
336;DHT22;156;48.738;9.228;2023-04-25T12:39:19;6.60;8.10
336;DHT22;156;48.738;9.228;2023-04-25T12:41:47;6.70;16.10
336;DHT22;156;48.738;9.228;2023-04-25T12:44:14;6.80;23.90
336;DHT22;156;48.738;9.228;2023-04-25T12:46:41;6.70;16.80
336;DHT22;156;48.738;9.228;2023-04-25T12:49:08;6.70;28.80
336;DHT22;156;48.738;9.228;2023-04-25T12:51:36;6.90;46.90
336;DHT22;156;48.738;9.228;2023-04-25T12:54:05;7.00;44.90
336;DHT22;156;48.738;9.228;2023-04-25T12:56:34;7.20;47.90
336;DHT22;156;48.738;9.228;2023-04-25T12:59:01;7.20;37.10
336;DHT22;156;48.738;9.228;2023-04-25T13:01:29;7.20;25.40
336;DHT22;156;48.738;9.228;2023-04-25T13:03:56;7.30;15.30
336;DHT22;156;48.738;9.228;2023-04-25T13:06:23;7.40;16.90
336;DHT22;156;48.738;9.228;2023-04-25T13:08:53;7.70;13.10
336;DHT22;156;48.738;9.228;2023-04-25T13:11:20;8.10;12.40
336;DHT22;156;48.738;9.228;2023-04-25T13:13:48;8.40;9.50
336;DHT22;156;48.738;9.228;2023-04-25T13:16:15;8.90;10.00
336;DHT22;156;48.738;9.228;2023-04-25T13:18:42;9.60;1.00
336;DHT22;156;48.738;9.228;2023-04-25T13:21:09;10.30;1.00
336;DHT22;156;48.738;9.228;2023-04-25T13:23:37;10.80;1.00
336;DHT22;156;48.738;9.228;2023-04-25T13:26:04;11.20;1.00
336;DHT22;156;48.738;9.228;2023-04-25T13:28:31;11.50;1.00
336;DHT22;156;48.738;9.228;2023-04-25T13:30:59;10.80;1.00
336;DHT22;156;48.738;9.228;2023-04-25T13:33:26;10.80;1.00
336;DHT22;156;48.738;9.228;2023-04-25T13:35:53;10.60;1.00
336;DHT22;156;48.738;9.228;2023-04-25T13:38:21;10.00;1.00
336;DHT22;156;48.738;9.228;2023-04-25T13:40:49;9.90;1.00
336;DHT22;156;48.738;9.228;2023-04-25T13:43:18;9.80;1.00
336;DHT22;156;48.738;9.228;2023-04-25T13:45:46;9.40;1.00
336;DHT22;156;48.738;9.228;2023-04-25T13:48:14;9.50;1.00
336;DHT22;156;48.738;9.228;2023-04-25T13:50:41;9.10;1.00
336;DHT22;156;48.738;9.228;2023-04-25T13:53:08;9.20;1.00
336;DHT22;156;48.738;9.228;2023-04-25T13:55:35;9.20;1.00
336;DHT22;156;48.738;9.228;2023-04-25T13:58:04;9.30;1.00
336;DHT22;156;48.738;9.228;2023-04-25T14:00:34;9.60;1.00
336;DHT22;156;48.738;9.228;2023-04-25T14:03:05;9.60;1.00
336;DHT22;156;48.738;9.228;2023-04-25T14:05:34;9.50;1.00
336;DHT22;156;48.738;9.228;2023-04-25T14:08:05;9.20;1.00
336;DHT22;156;48.738;9.228;2023-04-25T14:10:32;9.10;1.00
336;DHT22;156;48.738;9.228;2023-04-25T14:12:59;9.10;1.00
336;DHT22;156;48.738;9.228;2023-04-25T14:15:29;9.20;1.00
336;DHT22;156;48.738;9.228;2023-04-25T14:17:59;9.30;1.00
336;DHT22;156;48.738;9.228;2023-04-25T14:20:26;9.30;1.00
336;DHT22;156;48.738;9.228;2023-04-25T14:22:55;9.70;1.00
336;DHT22;156;48.738;9.228;2023-04-25T14:25:23;10.20;1.00
336;DHT22;156;48.738;9.228;2023-04-25T14:27:50;10.70;1.00
336;DHT22;156;48.738;9.228;2023-04-25T14:30:18;10.50;1.00
336;DHT22;156;48.738;9.228;2023-04-25T14:32:45;10.60;1.00
336;DHT22;156;48.738;9.228;2023-04-25T14:35:12;10.40;1.00
336;DHT22;156;48.738;9.228;2023-04-25T14:37:39;10.50;1.00
336;DHT22;156;48.738;9.228;2023-04-25T14:40:08;10.40;1.00
336;DHT22;156;48.738;9.228;2023-04-25T14:42:37;10.10;1.00
336;DHT22;156;48.738;9.228;2023-04-25T14:45:05;10.20;1.00
336;DHT22;156;48.738;9.228;2023-04-25T14:47:33;10.30;1.00
336;DHT22;156;48.738;9.228;2023-04-25T14:50:00;10.30;1.00
336;DHT22;156;48.738;9.228;2023-04-25T14:52:27;10.20;1.00
336;DHT22;156;48.738;9.228;2023-04-25T14:54:54;10.40;1.00
336;DHT22;156;48.738;9.228;2023-04-25T14:57:22;10.50;1.00
336;DHT22;156;48.738;9.228;2023-04-25T14:59:49;10.40;1.00
336;DHT22;156;48.738;9.228;2023-04-25T15:02:16;10.60;1.00
336;DHT22;156;48.738;9.228;2023-04-25T15:04:43;10.30;1.00
336;DHT22;156;48.738;9.228;2023-04-25T15:07:10;10.10;1.00
336;DHT22;156;48.738;9.228;2023-04-25T15:09:37;9.80;1.00
336;DHT22;156;48.738;9.228;2023-04-25T15:12:04;9.90;1.00
336;DHT22;156;48.738;9.228;2023-04-25T15:14:34;9.80;1.00
336;DHT22;156;48.738;9.228;2023-04-25T15:17:01;10.30;1.00
336;DHT22;156;48.738;9.228;2023-04-25T15:19:27;10.80;1.00
336;DHT22;156;48.738;9.228;2023-04-25T15:21:54;11.40;1.00
336;DHT22;156;48.738;9.228;2023-04-25T15:24:22;11.50;1.00
336;DHT22;156;48.738;9.228;2023-04-25T15:26:49;11.60;1.00
336;DHT22;156;48.738;9.228;2023-04-25T15:29:16;11.70;1.00
336;DHT22;156;48.738;9.228;2023-04-25T15:31:44;12.00;1.00
336;DHT22;156;48.738;9.228;2023-04-25T15:34:11;12.00;1.00
336;DHT22;156;48.738;9.228;2023-04-25T15:36:38;11.60;1.00
336;DHT22;156;48.738;9.228;2023-04-25T15:39:05;11.10;1.00
336;DHT22;156;48.738;9.228;2023-04-25T15:41:32;10.90;1.00
336;DHT22;156;48.738;9.228;2023-04-25T15:43:59;10.40;1.00
336;DHT22;156;48.738;9.228;2023-04-25T15:46:27;10.30;1.00
336;DHT22;156;48.738;9.228;2023-04-25T15:48:57;10.10;1.00
336;DHT22;156;48.738;9.228;2023-04-25T15:51:23;10.00;1.00
336;DHT22;156;48.738;9.228;2023-04-25T15:53:51;10.00;1.00
336;DHT22;156;48.738;9.228;2023-04-25T15:56:18;9.90;1.00
336;DHT22;156;48.738;9.228;2023-04-25T15:58:45;9.80;1.00
336;DHT22;156;48.738;9.228;2023-04-25T16:01:12;9.50;1.00
336;DHT22;156;48.738;9.228;2023-04-25T16:03:39;9.50;1.00
336;DHT22;156;48.738;9.228;2023-04-25T16:06:07;9.50;1.00
336;DHT22;156;48.738;9.228;2023-04-25T16:08:34;9.40;1.00
336;DHT22;156;48.738;9.228;2023-04-25T16:11:01;9.30;1.00
336;DHT22;156;48.738;9.228;2023-04-25T16:13:28;9.30;1.00
336;DHT22;156;48.738;9.228;2023-04-25T16:15:55;9.20;1.00
336;DHT22;156;48.738;9.228;2023-04-25T16:18:22;9.20;1.00
336;DHT22;156;48.738;9.228;2023-04-25T16:20:49;9.20;1.00
336;DHT22;156;48.738;9.228;2023-04-25T16:23:18;9.10;1.00
336;DHT22;156;48.738;9.228;2023-04-25T16:25:47;8.90;1.00
336;DHT22;156;48.738;9.228;2023-04-25T16:28:15;8.90;1.00
336;DHT22;156;48.738;9.228;2023-04-25T16:30:42;8.80;1.00
336;DHT22;156;48.738;9.228;2023-04-25T16:33:09;8.70;1.00
336;DHT22;156;48.738;9.228;2023-04-25T16:35:39;8.60;1.00
336;DHT22;156;48.738;9.228;2023-04-25T16:38:05;8.50;1.00
336;DHT22;156;48.738;9.228;2023-04-25T16:40:34;8.60;1.00
336;DHT22;156;48.738;9.228;2023-04-25T16:43:01;8.60;1.00
336;DHT22;156;48.738;9.228;2023-04-25T16:45:28;8.60;1.00
336;DHT22;156;48.738;9.228;2023-04-25T16:47:55;8.70;1.00
336;DHT22;156;48.738;9.228;2023-04-25T16:50:22;8.80;1.00
336;DHT22;156;48.738;9.228;2023-04-25T16:52:49;8.80;1.00
336;DHT22;156;48.738;9.228;2023-04-25T16:55:16;8.90;1.00
336;DHT22;156;48.738;9.228;2023-04-25T16:57:45;8.90;1.00
336;DHT22;156;48.738;9.228;2023-04-25T17:00:13;8.80;1.00
336;DHT22;156;48.738;9.228;2023-04-25T17:02:40;8.70;1.00
336;DHT22;156;48.738;9.228;2023-04-25T17:05:07;8.70;1.00